createdAt,value
2023-03-04T00:00:48.251Z,99793.66
2023-03-04T00:03:15.713Z,99796.28
2023-03-04T00:05:42.380Z,99798.00
2023-03-04T00:08:09.133Z,99798.72
2023-03-04T00:10:35.781Z,99794.47
2023-03-04T00:13:02.405Z,99799.56
2023-03-04T00:15:29.143Z,99791.81
2023-03-04T00:17:56.220Z,99796.16
2023-03-04T00:20:22.813Z,99796.03
2023-03-04T00:22:49.422Z,99798.72
2023-03-04T00:25:16.178Z,99800.44
2023-03-04T00:27:42.681Z,99791.84
2023-03-04T00:30:09.995Z,99784.91
2023-03-04T00:32:36.675Z,99787.47
2023-03-04T00:35:04.456Z,99790.16
2023-03-04T00:37:31.085Z,99785.72
2023-03-04T00:39:57.866Z,99781.44
2023-03-04T00:42:24.817Z,99785.66
2023-03-04T00:44:52.129Z,99785.66
2023-03-04T00:47:18.995Z,99783.94
2023-03-04T00:49:45.550Z,99783.94
2023-03-04T00:52:12.174Z,99780.53
2023-03-04T00:54:38.737Z,99781.28
2023-03-04T00:57:05.353Z,99781.94
2023-03-04T00:59:32.108Z,99780.25
2023-03-04T01:02:00.089Z,99778.50
2023-03-04T01:04:26.866Z,99779.44
2023-03-04T01:06:53.738Z,99771.56
2023-03-04T01:09:20.398Z,99776.75
2023-03-04T01:11:47.020Z,99772.41
2023-03-04T01:14:13.672Z,99761.19
2023-03-04T01:16:40.304Z,99764.63
2023-03-04T01:19:07.033Z,99768.91
2023-03-04T01:21:33.670Z,99768.81
2023-03-04T01:24:00.522Z,99764.47
2023-03-04T01:26:27.120Z,99763.56
2023-03-04T01:28:53.765Z,99765.25
2023-03-04T01:31:20.402Z,99765.88
2023-03-04T01:33:46.973Z,99759.94
2023-03-04T01:36:13.525Z,99753.16
2023-03-04T01:38:40.305Z,99750.59
2023-03-04T01:41:08.005Z,99742.78
2023-03-04T01:43:36.634Z,99745.56
2023-03-04T01:46:03.645Z,99740.44
2023-03-04T01:48:38.987Z,99737.03
2023-03-04T01:51:10.821Z,99734.53
2023-03-04T01:53:37.614Z,99730.22
2023-03-04T01:56:34.366Z,99723.44
2023-03-04T01:59:20.063Z,99724.31
2023-03-04T02:01:54.470Z,99731.25
2023-03-04T02:04:26.137Z,99726.91
2023-03-04T02:06:53.055Z,99721.75
2023-03-04T02:09:21.340Z,99722.59
2023-03-04T02:11:49.746Z,99714.81
2023-03-04T02:14:19.433Z,99707.97
2023-03-04T02:16:47.080Z,99712.31
2023-03-04T02:19:51.279Z,99706.31
2023-03-04T02:22:18.063Z,99709.72
2023-03-04T02:25:01.881Z,99708.88
2023-03-04T02:27:28.800Z,99702.00
2023-03-04T02:29:55.461Z,99704.59
2023-03-04T02:32:22.268Z,99712.31
2023-03-04T02:34:50.810Z,99701.00
2023-03-04T02:37:19.207Z,99699.28
2023-03-04T02:39:48.480Z,99696.75
2023-03-04T02:42:15.944Z,99693.34
2023-03-04T02:44:46.461Z,99694.00
2023-03-04T02:47:17.789Z,99706.16
2023-03-04T02:49:44.868Z,99696.75
2023-03-04T02:52:19.409Z,99698.50
2023-03-04T02:54:46.303Z,99691.66
2023-03-04T02:57:14.900Z,99682.19
2023-03-04T02:59:44.462Z,99684.72
2023-03-04T03:02:16.408Z,99689.03
2023-03-04T03:04:43.046Z,99688.13
2023-03-04T03:07:13.707Z,99688.19
2023-03-04T03:09:41.128Z,99694.88
2023-03-04T03:12:07.837Z,99698.50
2023-03-04T03:14:34.556Z,99694.16
2023-03-04T03:17:03.475Z,99696.63
2023-03-04T03:19:31.507Z,99701.06
2023-03-04T03:22:00.540Z,99699.31
2023-03-04T03:24:27.226Z,99701.97
2023-03-04T03:26:53.851Z,99692.50
2023-03-04T03:29:20.472Z,99691.66
2023-03-04T03:31:47.049Z,99695.13
2023-03-04T03:34:13.793Z,99691.66
2023-03-04T03:36:41.721Z,99684.75
2023-03-04T03:39:08.341Z,99692.56
2023-03-04T03:41:34.946Z,99687.41
2023-03-04T03:44:01.907Z,99689.09
2023-03-04T03:46:29.845Z,99682.09
2023-03-04T03:48:56.502Z,99687.38
2023-03-04T03:51:23.171Z,99679.59
2023-03-04T03:53:49.793Z,99683.03
2023-03-04T03:56:16.390Z,99687.28
2023-03-04T03:58:42.973Z,99686.50
2023-03-04T04:01:09.661Z,99685.63
2023-03-04T04:03:36.629Z,99683.06
2023-03-04T04:06:03.409Z,99683.03
2023-03-04T04:08:30.026Z,99676.13
2023-03-04T04:10:56.606Z,99674.44
2023-03-04T04:13:23.303Z,99677.00
2023-03-04T04:15:54.304Z,99669.25
2023-03-04T04:18:20.896Z,99671.00
2023-03-04T04:20:47.544Z,99673.56
2023-03-04T04:23:14.075Z,99678.72
2023-03-04T04:25:43.600Z,99663.97
2023-03-04T04:28:10.358Z,99676.91
2023-03-04T04:30:37.057Z,99672.66
2023-03-04T04:33:04.799Z,99671.72
2023-03-04T04:35:36.564Z,99671.78
2023-03-04T04:38:03.280Z,99666.63
2023-03-04T04:40:29.895Z,99666.66
2023-03-04T04:42:57.054Z,99670.94
2023-03-04T04:45:27.424Z,99665.75
2023-03-04T04:47:57.310Z,99659.72
2023-03-04T04:50:25.128Z,99655.41
2023-03-04T04:52:51.773Z,99662.31
2023-03-04T04:55:18.493Z,99660.59
2023-03-04T04:57:45.052Z,99662.31
2023-03-04T05:00:12.542Z,99658.00
2023-03-04T05:02:39.607Z,99651.06
2023-03-04T05:05:07.446Z,99656.28
2023-03-04T05:07:34.301Z,99654.53
2023-03-04T05:10:01.064Z,99651.06
2023-03-04T05:12:27.814Z,99658.00
2023-03-04T05:14:54.408Z,99659.72
2023-03-04T05:17:20.978Z,99656.25
2023-03-04T05:19:47.575Z,99663.97
2023-03-04T05:22:14.080Z,99652.78
2023-03-04T05:24:40.636Z,99658.88
2023-03-04T05:27:07.148Z,99658.03
2023-03-04T05:29:33.782Z,99657.16
2023-03-04T05:32:00.343Z,99653.69
2023-03-04T05:34:26.863Z,99649.38
2023-03-04T05:36:53.417Z,99650.25
2023-03-04T05:39:20.115Z,99647.66
2023-03-04T05:41:46.674Z,99656.28
2023-03-04T05:44:13.324Z,99654.53
2023-03-04T05:46:40.002Z,99660.63
2023-03-04T05:49:06.636Z,99656.28
2023-03-04T05:51:33.192Z,99658.03
2023-03-04T05:53:59.729Z,99651.09
2023-03-04T05:56:26.315Z,99645.91
2023-03-04T05:58:52.886Z,99652.84
2023-03-04T06:01:19.442Z,99650.22
2023-03-04T06:03:48.544Z,99649.38
2023-03-04T06:06:15.401Z,99658.03
2023-03-04T06:08:42.015Z,99662.31
2023-03-04T06:11:08.799Z,99662.34
2023-03-04T06:13:36.579Z,99661.44
2023-03-04T06:16:03.379Z,99664.94
2023-03-04T06:18:30.105Z,99672.72
2023-03-04T06:21:01.481Z,99678.78
2023-03-04T06:23:28.990Z,99681.38
2023-03-04T06:25:57.913Z,99691.75
2023-03-04T06:28:24.965Z,99685.69
2023-03-04T06:30:53.092Z,99683.94
2023-03-04T06:33:19.900Z,99694.31
2023-03-04T06:35:46.551Z,99695.19
2023-03-04T06:38:13.294Z,99702.97
2023-03-04T06:40:40.152Z,99699.50
2023-03-04T06:43:06.880Z,99696.94
2023-03-04T06:45:33.372Z,99696.06
2023-03-04T06:47:59.883Z,99698.66
2023-03-04T06:50:26.582Z,99703.84
2023-03-04T06:52:53.276Z,99706.44
2023-03-04T06:55:29.191Z,99707.28
2023-03-04T06:57:55.916Z,99711.63
2023-03-04T07:00:24.133Z,99709.88
2023-03-04T07:02:53.367Z,99711.59
2023-03-04T07:05:21.311Z,99714.19
2023-03-04T07:07:49.461Z,99709.81
2023-03-04T07:10:19.767Z,99715.03
2023-03-04T07:12:46.310Z,99712.47
2023-03-04T07:15:13.171Z,99705.53
2023-03-04T07:17:39.748Z,99715.03
2023-03-04T07:20:06.832Z,99717.59
2023-03-04T07:22:33.418Z,99716.78
2023-03-04T07:24:59.951Z,99715.88
2023-03-04T07:27:26.662Z,99717.56
2023-03-04T07:29:53.217Z,99723.56
2023-03-04T07:32:19.984Z,99713.25
2023-03-04T07:34:46.666Z,99721.84
2023-03-04T07:37:13.292Z,99713.94
2023-03-04T07:39:39.894Z,99720.81
2023-03-04T07:42:06.438Z,99720.72
2023-03-04T07:44:39.366Z,99726.19
2023-03-04T07:47:05.995Z,99725.25
2023-03-04T07:49:36.795Z,99732.06
2023-03-04T07:52:05.134Z,99727.69
2023-03-04T07:54:32.422Z,99736.47
2023-03-04T07:56:59.028Z,99727.75
2023-03-04T08:02:35.867Z,99733.94
2023-03-04T08:05:10.380Z,99728.88
2023-03-04T08:07:37.136Z,99734.81
2023-03-04T08:10:04.626Z,99727.75
2023-03-04T08:12:31.252Z,99735.72
2023-03-04T08:14:57.818Z,99729.41
2023-03-04T08:17:24.498Z,99732.97
2023-03-04T08:19:51.221Z,99734.00
2023-03-04T08:22:17.905Z,99733.94
2023-03-04T08:24:44.442Z,99733.78
2023-03-04T08:27:11.073Z,99731.25
2023-03-04T08:29:37.779Z,99739.09
2023-03-04T08:32:04.661Z,99741.69
2023-03-04T08:34:31.530Z,99732.13
2023-03-04T08:36:58.185Z,99744.22
2023-03-04T08:39:24.742Z,99744.22
2023-03-04T08:41:51.361Z,99740.75
2023-03-04T08:44:18.286Z,99744.06
2023-03-04T08:46:44.895Z,99744.00
2023-03-04T08:49:13.085Z,99730.03
2023-03-04T08:51:40.040Z,99734.53
2023-03-04T08:54:07.077Z,99734.34
2023-03-04T08:56:33.645Z,99737.22
2023-03-04T08:59:00.168Z,99738.94
2023-03-04T09:01:27.168Z,99749.19
2023-03-04T09:03:53.798Z,99745.84
2023-03-04T09:06:20.477Z,99740.31
2023-03-04T09:08:47.054Z,99741.91
2023-03-04T09:11:13.846Z,99739.72
2023-03-04T09:13:40.535Z,99739.78
2023-03-04T09:16:14.947Z,99743.25
2023-03-04T09:18:42.167Z,99743.13
2023-03-04T09:21:09.530Z,99740.31
2023-03-04T09:23:37.417Z,99742.94
2023-03-04T09:26:27.196Z,99743.00
2023-03-04T09:29:02.534Z,99739.38
2023-03-04T09:31:29.817Z,99736.63
2023-03-04T09:33:58.674Z,99746.50
2023-03-04T09:36:26.616Z,99730.34
2023-03-04T09:38:53.221Z,99738.78
2023-03-04T09:41:26.864Z,99735.41
2023-03-04T09:43:55.247Z,99740.41
2023-03-04T09:46:33.935Z,99735.97
2023-03-04T09:49:00.787Z,99738.69
2023-03-04T09:51:54.421Z,99736.09
2023-03-04T09:54:32.547Z,99735.94
2023-03-04T09:57:34.621Z,99733.88
2023-03-04T10:00:20.088Z,99726.16
2023-03-04T10:03:05.082Z,99732.03
2023-03-04T10:05:34.329Z,99731.63
2023-03-04T10:08:16.948Z,99744.84
2023-03-04T10:10:45.091Z,99738.63
2023-03-04T10:13:18.364Z,99730.81
2023-03-04T10:15:51.237Z,99724.59
2023-03-04T10:18:27.681Z,99736.78
2023-03-04T10:21:00.587Z,99731.94
2023-03-04T10:23:29.847Z,99731.91
2023-03-04T10:25:57.848Z,99731.63
2023-03-04T10:28:30.423Z,99733.00
2023-03-04T10:31:09.431Z,99721.53
2023-03-04T10:33:38.902Z,99715.44
2023-03-04T10:36:16.771Z,99718.34
2023-03-04T10:38:43.596Z,99719.69
2023-03-04T10:41:18.361Z,99717.22
2023-03-04T10:43:50.858Z,99717.59
2023-03-04T10:46:17.651Z,99716.28
2023-03-04T10:48:44.952Z,99717.16
2023-03-04T10:51:22.416Z,99721.47
2023-03-04T10:53:56.001Z,99715.44
2023-03-04T10:56:32.822Z,99708.63
2023-03-04T10:59:27.999Z,99705.75
2023-03-04T11:01:54.900Z,99701.34
2023-03-04T11:04:27.467Z,99706.56
2023-03-04T11:06:54.406Z,99706.38
2023-03-04T11:09:27.840Z,99701.81
2023-03-04T11:12:02.089Z,99697.81
2023-03-04T11:14:37.240Z,99700.81
2023-03-04T11:17:19.057Z,99695.63
2023-03-04T11:19:51.942Z,99694.94
2023-03-04T11:22:33.834Z,99684.94
2023-03-04T11:25:18.188Z,99690.44
2023-03-04T11:27:57.774Z,99692.31
2023-03-04T11:30:48.111Z,99691.06
2023-03-04T11:33:24.023Z,99684.06
2023-03-04T11:36:31.640Z,99681.41
2023-03-04T11:38:59.622Z,99684.16
2023-03-04T11:41:48.715Z,99672.91
2023-03-04T11:44:21.142Z,99683.66
2023-03-04T11:47:39.347Z,99677.69
2023-03-04T11:50:50.847Z,99673.41
2023-03-04T18:42:37.593Z,99443.22
2023-03-04T18:45:43.536Z,99448.16
2023-03-04T18:48:10.221Z,99448.84
2023-03-04T18:50:36.908Z,99452.53
2023-03-04T18:53:03.942Z,99449.94
2023-03-04T18:55:31.816Z,99444.44
2023-03-04T18:58:01.316Z,99437.41
2023-03-04T19:00:29.039Z,99441.78
2023-03-04T19:03:08.467Z,99444.41
2023-03-04T19:05:36.026Z,99441.78
2023-03-04T19:08:02.817Z,99440.00
2023-03-04T19:10:29.553Z,99441.63
2023-03-04T19:12:59.774Z,99445.31
2023-03-04T19:15:29.612Z,99442.13
2023-03-04T19:17:56.328Z,99437.06
2023-03-04T19:20:23.171Z,99440.22
2023-03-04T19:22:50.988Z,99438.88
2023-03-04T19:25:17.869Z,99443.81
2023-03-04T19:27:44.596Z,99441.38
2023-03-04T19:30:11.778Z,99447.31
2023-03-04T19:32:38.510Z,99446.28
2023-03-04T19:35:05.645Z,99442.00
2023-03-04T19:37:32.416Z,99448.09
2023-03-04T19:39:59.092Z,99435.47
2023-03-04T19:42:25.695Z,99434.50
2023-03-04T19:44:52.265Z,99433.56
2023-03-04T19:47:18.932Z,99432.69
2023-03-04T19:49:45.689Z,99430.88
2023-03-04T19:52:12.413Z,99430.72
2023-03-04T19:54:39.429Z,99433.38
2023-03-04T19:57:06.086Z,99430.09
2023-03-04T19:59:37.707Z,99418.09
2023-03-04T20:02:04.497Z,99420.50
2023-03-04T20:04:31.566Z,99428.19
2023-03-04T20:06:58.384Z,99426.38
2023-03-04T20:09:25.068Z,99433.41
2023-03-04T20:11:58.408Z,99430.00
2023-03-04T20:14:31.612Z,99427.38
2023-03-04T20:17:01.106Z,99428.38
2023-03-04T20:19:31.865Z,99431.00
2023-03-04T20:21:58.843Z,99432.56
2023-03-04T20:24:26.723Z,99445.31
2023-03-04T20:26:54.086Z,99456.56
2023-03-04T20:29:20.961Z,99452.03
2023-03-04T20:31:48.248Z,99453.41
2023-03-04T20:34:20.093Z,99453.22
2023-03-04T20:36:49.090Z,99455.47
2023-03-04T20:39:28.111Z,99452.50
2023-03-04T20:41:58.029Z,99448.22
2023-03-04T20:44:25.017Z,99450.16
2023-03-04T20:46:51.787Z,99455.53
2023-03-04T20:49:24.393Z,99455.53
2023-03-04T20:51:58.083Z,99458.09
2023-03-04T20:54:24.848Z,99457.25
2023-03-04T20:56:51.469Z,99456.63
2023-03-04T20:59:18.718Z,99452.34
2023-03-04T21:01:48.079Z,99444.59
2023-03-04T21:04:15.928Z,99455.78
2023-03-04T21:06:43.735Z,99450.34
2023-03-04T21:09:14.521Z,99448.75
2023-03-04T21:11:42.334Z,99443.84
2023-03-04T21:14:24.331Z,99436.75
2023-03-04T21:16:53.374Z,99436.63
2023-03-04T21:19:23.120Z,99438.16
2023-03-04T21:21:51.807Z,99431.16
2023-03-04T21:24:21.260Z,99441.56
2023-03-04T21:26:48.639Z,99440.97
2023-03-04T21:29:17.146Z,99440.91
2023-03-04T21:31:46.402Z,99431.19
2023-03-04T21:34:17.961Z,99435.72
2023-03-04T21:36:44.714Z,99433.97
2023-03-04T21:39:23.661Z,99418.19
2023-03-04T21:41:50.765Z,99427.22
2023-03-04T21:44:28.437Z,99424.00
2023-03-04T21:47:00.728Z,99426.22
2023-03-04T21:49:27.814Z,99429.78
2023-03-04T21:51:54.787Z,99427.91
2023-03-04T21:54:21.619Z,99425.97
2023-03-04T21:56:49.471Z,99430.25
2023-03-04T21:59:17.553Z,99426.19
2023-03-04T22:01:45.139Z,99428.19
2023-03-04T22:04:12.384Z,99425.25
2023-03-04T22:06:40.812Z,99426.28
2023-03-04T22:09:07.964Z,99415.94
2023-03-04T22:11:34.830Z,99416.78
2023-03-04T22:14:02.982Z,99424.53
2023-03-04T22:16:31.756Z,99424.50
2023-03-04T22:18:59.224Z,99423.19
2023-03-04T22:21:25.889Z,99419.47
2023-03-04T22:23:52.541Z,99422.06
2023-03-04T22:26:26.896Z,99416.69
2023-03-04T22:28:53.495Z,99422.56
2023-03-04T22:31:34.972Z,99418.22
2023-03-04T22:34:14.028Z,99415.56
2023-03-04T22:36:43.955Z,99416.47
2023-03-04T22:39:13.803Z,99416.16
2023-03-04T22:41:40.637Z,99416.16
2023-03-04T22:44:07.722Z,99412.38
2023-03-04T22:46:38.094Z,99420.91
2023-03-04T22:49:09.647Z,99419.13
2023-03-04T22:51:37.230Z,99413.03
2023-03-04T22:54:04.207Z,99415.56
2023-03-04T22:56:30.921Z,99412.03
2023-03-04T22:58:57.512Z,99412.94
2023-03-04T23:01:24.259Z,99404.94
2023-03-04T23:03:51.415Z,99406.22
2023-03-04T23:06:25.195Z,99416.09
2023-03-04T23:08:52.447Z,99402.88
2023-03-04T23:11:22.125Z,99405.72
2023-03-04T23:13:50.140Z,99402.91
2023-03-04T23:16:17.853Z,99407.13
2023-03-04T23:18:47.240Z,99405.31
2023-03-04T23:21:22.086Z,99406.13
2023-03-04T23:23:49.023Z,99406.13
2023-03-04T23:26:21.251Z,99406.94
2023-03-04T23:28:48.213Z,99406.31
2023-03-04T23:31:15.477Z,99398.47
2023-03-04T23:33:43.181Z,99398.84
2023-03-04T23:36:15.733Z,99404.19
2023-03-04T23:38:47.750Z,99402.28
2023-03-04T23:41:19.950Z,99396.97
2023-03-04T23:43:47.139Z,99399.41
2023-03-04T23:46:14.274Z,99401.47
2023-03-04T23:48:43.669Z,99402.38
2023-03-04T23:51:10.389Z,99396.81
2023-03-04T23:53:39.055Z,99388.13
2023-03-04T23:56:11.120Z,99393.16
2023-03-04T23:58:38.021Z,99386.25
